HTAT2: Little Wichita River abv Henrietta 3W

                                SHEF ID:       HTAT2     Little Wichita Rv abv Henrietta,
STATION TYPE:

PRECIP STAGE RIV-FLOW BAT-LOAD
in ft cfs volt
Ccp-Rev Ccp-Rev Ccp-Rev Ccp-Rev
(America/Chicago)
04/30 00:00 ---- 10.47 158 12.33
04/30 01:00 ---- 10.50 160 12.33
04/30 02:00 ---- 10.54 163 12.33
04/30 03:00 ---- 10.57 165 12.33
04/30 04:00 ---- 10.58 165 12.33
04/30 05:00 ---- 10.61 168 12.33
04/30 06:00 ---- 10.63 169 12.33
04/30 07:00 ---- 10.64 170 ----
04/30 08:00 ---- 10.63 169 12.33
04/30 09:00 ---- 10.64 170 12.33
04/30 10:00 ---- 10.62 168 12.41
04/30 11:00 ---- 10.61 168 12.41
04/30 12:00 ---- 10.58 165 12.49
04/30 13:00 ---- 10.56 164 12.73
04/30 14:00 ---- 10.54 163 12.81
04/30 15:00 ---- 10.49 159 12.81
04/30 16:00 ---- 10.45 156 12.73
04/30 17:00 ---- 10.40 153 12.57
04/30 18:00 ---- 10.36 150 12.41
04/30 19:00 ---- 10.30 146 12.41
04/30 20:00 ---- 10.24 142 12.33
04/30 21:00 ---- 10.17 137 12.33
04/30 22:00 ---- 10.10 133 12.33
04/30 23:00 ---- 10.04 129 12.33
Data processed at Fri 01May2026 04:37 GMT

NOTICE: If you are parsing this page

Please convert to using our Data API. Starting early 2026 we will be migrating to: https://water.usace.army.mil with modern pages rendered in JavaScript. When this migration completes you will no longer be able to scrape this page! CWMSDataAPI (CDA)

Timeseries IDs (TSIDs)

TSIDs used from left to right in the data table
HENR.Precip-Inc.Total.1Hour.1Hour.Ccp-Rev
HENR.Stage.Inst.1Hour.0.Ccp-Rev
HENR.Flow.Inst.1Hour.0.Ccp-Rev
HENR.Volt-Battery Load.Inst.1Hour.0.Ccp-Rev

                            

All information presented herein is the property of the government of the United States of America and may be revised or deleted at any time without prior notice. Dissemination of this information without the expressed written consent of the Public Affairs Office, Tulsa District U.S. Army Corps of Engineers is strictly prohibited. These data are gathered electronically and, as presented, have NOT undergone any form of quality control. These data are NOT guaranteed to be valid or correct.